createdAt,value
2022-12-01T00:00:58.426Z,100.00
2022-12-01T00:03:31.453Z,100.00
2022-12-01T00:06:03.486Z,100.00
2022-12-01T00:08:35.056Z,100.00
2022-12-01T00:11:12.607Z,100.00
2022-12-01T00:13:43.026Z,100.00
2022-12-01T00:16:17.657Z,100.00
2022-12-01T00:18:51.317Z,100.00
2022-12-01T00:21:23.972Z,100.00
2022-12-01T00:23:57.761Z,100.00
2022-12-01T00:26:32.085Z,100.00
2022-12-01T00:29:02.825Z,100.00
2022-12-01T00:31:34.010Z,100.00
2022-12-01T00:34:09.695Z,100.00
2022-12-01T00:36:42.435Z,100.00
2022-12-01T00:39:12.826Z,100.00
2022-12-01T00:41:45.214Z,100.00
2022-12-01T00:44:16.058Z,100.00
2022-12-01T00:46:46.845Z,100.00
2022-12-01T00:49:17.508Z,100.00
2022-12-01T00:51:48.727Z,100.00
2022-12-01T00:54:19.516Z,100.00
2022-12-01T00:56:51.883Z,100.00
2022-12-01T00:59:22.205Z,100.00
2022-12-01T01:01:54.459Z,100.00
2022-12-01T01:04:25.098Z,100.00
2022-12-01T01:06:56.186Z,100.00
2022-12-01T01:09:26.734Z,100.00
2022-12-01T01:11:59.325Z,100.00
2022-12-01T01:14:30.944Z,100.00
2022-12-01T01:17:01.877Z,100.00
2022-12-01T01:19:33.086Z,100.00
2022-12-01T01:22:03.681Z,100.00
2022-12-01T01:24:35.556Z,100.00
2022-12-01T01:27:08.055Z,100.00
2022-12-01T01:29:39.215Z,100.00
2022-12-01T01:32:09.995Z,100.00
2022-12-01T01:34:40.328Z,100.00
2022-12-01T01:37:11.503Z,100.00
2022-12-01T01:39:42.139Z,100.00
2022-12-01T01:42:15.987Z,100.00
2022-12-01T01:44:52.966Z,100.00
2022-12-01T01:47:27.166Z,100.00
2022-12-01T01:50:01.107Z,100.00
2022-12-01T01:52:32.016Z,100.00
2022-12-01T01:55:02.716Z,100.00
2022-12-01T01:57:35.966Z,100.00
2022-12-01T02:00:09.625Z,100.00
2022-12-01T02:02:46.131Z,100.00
2022-12-01T02:05:21.306Z,100.00
2022-12-01T02:07:54.096Z,100.00
2022-12-01T02:10:30.596Z,100.00
2022-12-01T02:13:17.871Z,100.00
2022-12-01T02:15:58.359Z,100.00
2022-12-01T02:18:39.756Z,100.00
2022-12-01T02:21:35.695Z,100.00
2022-12-01T02:24:38.773Z,100.00
2022-12-01T02:27:21.676Z,100.00
2022-12-01T02:30:11.184Z,100.00
2022-12-01T02:33:00.544Z,100.00
2022-12-01T02:35:39.484Z,100.00
2022-12-01T02:38:15.906Z,100.00
2022-12-01T02:40:54.977Z,100.00
2022-12-01T02:43:33.329Z,100.00
2022-12-01T02:46:11.170Z,100.00
2022-12-01T02:48:46.055Z,100.00
2022-12-01T02:51:22.346Z,100.00
2022-12-01T02:53:53.418Z,100.00
2022-12-01T02:56:25.245Z,100.00
2022-12-01T02:58:56.118Z,100.00
2022-12-01T03:01:52.897Z,100.00
2022-12-01T03:04:39.188Z,100.00
2022-12-01T03:07:25.152Z,100.00
2022-12-01T03:10:19.005Z,100.00
2022-12-01T03:13:01.405Z,100.00
2022-12-01T03:15:38.189Z,100.00
2022-12-01T03:18:20.633Z,100.00
2022-12-01T03:21:02.167Z,100.00
2022-12-01T03:23:38.342Z,100.00
2022-12-01T03:26:12.796Z,100.00
2022-12-01T03:28:49.927Z,100.00
2022-12-01T03:31:26.470Z,100.00
2022-12-01T03:34:06.915Z,100.00
2022-12-01T03:36:41.936Z,100.00
2022-12-01T03:39:16.623Z,100.00
2022-12-01T03:41:51.176Z,100.00
2022-12-01T03:44:26.554Z,100.00
2022-12-01T03:46:59.966Z,100.00
2022-12-01T03:49:32.105Z,100.00
2022-12-01T03:52:12.677Z,100.00
2022-12-01T03:54:50.828Z,100.00
2022-12-01T03:57:27.787Z,100.00
2022-12-01T03:59:58.844Z,100.00
2022-12-01T04:02:31.169Z,100.00
2022-12-01T04:05:02.556Z,100.00
2022-12-01T04:07:34.577Z,100.00
2022-12-01T04:10:05.996Z,100.00
2022-12-01T04:12:35.475Z,100.00
2022-12-01T04:15:09.575Z,100.00
2022-12-01T04:17:40.556Z,100.00
2022-12-01T04:20:12.965Z,100.00
2022-12-01T04:22:45.275Z,100.00
2022-12-01T04:25:16.226Z,100.00
2022-12-01T04:27:47.816Z,100.00
2022-12-01T04:30:19.157Z,100.00
2022-12-01T04:32:49.677Z,100.00
2022-12-01T04:35:20.577Z,100.00
2022-12-01T04:37:52.516Z,100.00
2022-12-01T04:40:23.265Z,100.00
2022-12-01T04:42:53.736Z,100.00
2022-12-01T04:45:24.566Z,100.00
2022-12-01T04:47:55.814Z,100.00
2022-12-01T04:50:26.335Z,100.00
2022-12-01T04:52:58.116Z,100.00
2022-12-01T04:55:28.947Z,100.00
2022-12-01T04:58:01.706Z,100.00
2022-12-01T05:00:32.774Z,100.00
2022-12-01T05:03:03.976Z,100.00
2022-12-01T05:05:34.875Z,100.00
2022-12-01T05:08:09.109Z,100.00
2022-12-01T05:10:40.575Z,100.00
2022-12-01T05:13:11.045Z,100.00
2022-12-01T05:15:42.536Z,100.00
2022-12-01T05:18:13.085Z,100.00
2022-12-01T05:20:57.954Z,100.00
2022-12-01T05:23:31.883Z,100.00
2022-12-01T05:26:04.212Z,100.00
2022-12-01T05:28:34.646Z,100.00
2022-12-01T05:31:05.848Z,100.00
2022-12-01T05:33:36.494Z,100.00
2022-12-01T05:36:08.236Z,100.00
2022-12-01T05:38:40.166Z,100.00
2022-12-01T05:41:11.566Z,100.00
2022-12-01T05:43:41.878Z,100.00
2022-12-01T05:46:12.812Z,100.00
2022-12-01T05:48:43.916Z,100.00
2022-12-01T05:51:16.616Z,100.00
2022-12-01T05:53:48.890Z,100.00
2022-12-01T05:56:19.776Z,100.00
2022-12-01T05:58:50.158Z,100.00
2022-12-01T06:01:21.167Z,100.00
2022-12-01T06:03:51.651Z,100.00
2022-12-01T06:06:22.681Z,100.00
2022-12-01T06:08:54.465Z,100.00
2022-12-01T06:11:25.348Z,100.00
2022-12-01T06:13:55.808Z,100.00
2022-12-01T06:16:27.656Z,100.00
2022-12-01T06:18:57.816Z,100.00
2022-12-01T06:21:29.011Z,100.00
2022-12-01T06:24:01.246Z,100.00
2022-12-01T06:26:32.193Z,100.00
2022-12-01T06:29:02.707Z,100.00
2022-12-01T06:31:33.805Z,100.00
2022-12-01T06:34:04.226Z,100.00
2022-12-01T06:36:35.496Z,100.00
2022-12-01T06:39:16.895Z,100.00
2022-12-01T06:41:48.344Z,100.00
2022-12-01T06:44:18.803Z,100.00
2022-12-01T06:46:53.194Z,100.00
2022-12-01T06:49:23.886Z,100.00
2022-12-01T06:52:00.970Z,100.00
2022-12-01T06:54:33.874Z,100.00
2022-12-01T06:57:05.446Z,100.00
2022-12-01T06:59:36.966Z,100.00
2022-12-01T07:02:08.550Z,100.00
2022-12-01T07:04:39.345Z,100.00
2022-12-01T07:07:11.635Z,100.00
2022-12-01T07:09:43.684Z,100.00
2022-12-01T07:12:16.515Z,100.00
2022-12-01T07:14:47.136Z,100.00
2022-12-01T07:17:18.147Z,100.00
2022-12-01T07:19:48.776Z,100.00
2022-12-01T07:22:23.356Z,100.00
2022-12-01T07:24:57.156Z,100.00
2022-12-01T07:27:31.295Z,100.00
2022-12-01T07:30:02.028Z,100.00
2022-12-01T07:32:33.392Z,100.00
2022-12-01T07:35:05.501Z,100.00
2022-12-01T07:37:36.320Z,100.00
2022-12-01T07:40:10.943Z,100.00
2022-12-01T07:42:44.041Z,100.00
2022-12-01T07:45:14.691Z,100.00
2022-12-01T07:47:46.213Z,100.00
2022-12-01T07:50:16.893Z,100.00
2022-12-01T07:52:51.597Z,100.00
2022-12-01T07:55:23.892Z,100.00
2022-12-01T07:57:55.161Z,100.00
2022-12-01T08:00:26.077Z,100.00
2022-12-01T08:02:57.596Z,100.00
2022-12-01T08:05:30.697Z,100.00
2022-12-01T08:08:01.941Z,100.00
2022-12-01T08:10:34.028Z,100.00
2022-12-01T08:13:05.865Z,100.00
2022-12-01T08:15:37.367Z,100.00
2022-12-01T08:18:08.578Z,100.00
2022-12-01T08:20:39.005Z,100.00
2022-12-01T08:23:09.981Z,100.00
2022-12-01T08:25:44.565Z,100.00
2022-12-01T08:28:15.743Z,100.00
2022-12-01T08:30:46.487Z,100.00
2022-12-01T08:33:17.644Z,100.00
2022-12-01T08:35:49.233Z,100.00
2022-12-01T08:38:20.886Z,100.00
2022-12-01T08:40:52.888Z,100.00
2022-12-01T08:46:15.938Z,100.00
2022-12-01T08:48:47.204Z,100.00
2022-12-01T08:51:20.963Z,100.00
2022-12-01T08:53:54.995Z,100.00
2022-12-01T08:56:36.584Z,100.00
2022-12-01T08:59:09.363Z,100.00
2022-12-01T09:01:52.513Z,100.00
2022-12-01T09:04:24.988Z,100.00
2022-12-01T09:06:58.376Z,100.00
2022-12-01T09:09:33.544Z,100.00
2022-12-01T09:12:07.915Z,100.00
2022-12-01T09:14:40.755Z,100.00
2022-12-01T09:17:11.704Z,100.00
2022-12-01T09:19:42.606Z,100.00
2022-12-01T09:22:13.644Z,100.00
2022-12-01T09:24:44.154Z,100.00
2022-12-01T09:27:16.183Z,100.00
2022-12-01T09:29:47.405Z,100.00
2022-12-01T09:32:18.446Z,100.00
2022-12-01T09:34:49.658Z,100.00
2022-12-01T09:37:20.595Z,100.00
2022-12-01T09:39:52.207Z,100.00
2022-12-01T09:42:32.399Z,100.00
2022-12-01T09:45:07.634Z,100.00
2022-12-01T09:47:40.507Z,100.00
2022-12-01T09:50:19.195Z,100.00
2022-12-01T09:52:52.675Z,100.00
2022-12-01T09:55:26.695Z,100.00
2022-12-01T09:58:00.605Z,100.00
2022-12-01T10:00:34.902Z,100.00
2022-12-01T10:03:16.824Z,100.00
2022-12-01T10:06:25.009Z,100.00
2022-12-01T10:08:45.964Z,100.00
2022-12-01T10:11:29.673Z,100.00
2022-12-01T10:14:05.004Z,100.00
2022-12-01T10:16:43.103Z,100.00
2022-12-01T10:19:19.705Z,100.00
2022-12-01T10:22:07.994Z,100.00
2022-12-01T10:24:54.506Z,100.00
2022-12-01T10:27:39.202Z,100.00
2022-12-01T10:30:16.194Z,100.00
2022-12-01T10:32:53.994Z,100.00
2022-12-01T10:35:27.595Z,100.00
2022-12-01T10:38:02.263Z,100.00
2022-12-01T10:40:35.664Z,100.00
2022-12-01T10:43:08.035Z,100.00
2022-12-01T10:45:45.651Z,100.00
2022-12-01T10:48:18.794Z,100.00
2022-12-01T10:50:51.119Z,100.00
2022-12-01T10:53:33.999Z,100.00
2022-12-01T10:56:12.400Z,100.00
2022-12-01T10:58:48.605Z,100.00
2022-12-01T11:01:22.776Z,100.00
2022-12-01T11:03:57.440Z,100.00
2022-12-01T11:06:31.032Z,100.00
2022-12-01T11:09:04.065Z,100.00
2022-12-01T11:11:37.514Z,100.00
2022-12-01T11:14:19.796Z,100.00
2022-12-01T11:16:53.051Z,100.00
2022-12-01T11:19:31.851Z,100.00
2022-12-01T11:22:06.033Z,100.00
2022-12-01T11:24:44.543Z,100.00
2022-12-01T11:27:19.526Z,100.00
2022-12-01T11:29:53.195Z,100.00
2022-12-01T11:32:29.164Z,100.00
2022-12-01T11:35:26.505Z,100.00
2022-12-01T11:38:28.406Z,100.00
2022-12-01T11:40:54.947Z,100.00
2022-12-01T11:43:30.675Z,100.00
2022-12-01T11:46:07.188Z,99.49
2022-12-01T11:48:40.735Z,99.61
2022-12-01T11:51:17.576Z,98.79
2022-12-01T11:53:51.796Z,98.72
2022-12-01T11:56:26.565Z,98.76
2022-12-01T11:59:01.336Z,97.76
2022-12-01T12:01:42.376Z,96.64
2022-12-01T12:04:29.348Z,95.58
2022-12-01T12:07:09.225Z,95.75
2022-12-01T12:09:53.376Z,94.80
2022-12-01T12:12:37.606Z,94.71
2022-12-01T12:15:19.775Z,94.44
2022-12-01T12:18:06.243Z,94.19
2022-12-01T12:20:48.787Z,93.91
2022-12-01T12:23:36.822Z,93.50
2022-12-01T12:26:16.188Z,93.04
2022-12-01T12:29:13.511Z,93.27
2022-12-01T12:32:01.295Z,93.20
2022-12-01T12:34:42.856Z,93.42
2022-12-01T12:37:26.386Z,94.08
2022-12-01T12:40:12.257Z,93.73
2022-12-01T12:42:52.227Z,93.28
2022-12-01T12:45:30.386Z,93.89
2022-12-01T12:48:16.136Z,93.80
2022-12-01T12:50:56.946Z,93.63
2022-12-01T12:53:36.255Z,94.50
2022-12-01T12:56:13.927Z,93.79
2022-12-01T12:58:52.601Z,94.20
2022-12-01T13:01:28.498Z,93.66
2022-12-01T13:04:03.476Z,92.94
2022-12-01T13:06:42.572Z,92.94
2022-12-01T13:09:20.115Z,92.67
2022-12-01T13:11:57.351Z,94.28
2022-12-01T13:14:34.591Z,93.02
2022-12-01T13:17:20.250Z,92.93
2022-12-01T13:19:51.239Z,94.52
2022-12-01T13:22:26.719Z,94.13
2022-12-01T13:24:59.010Z,95.54
2022-12-01T13:27:33.661Z,95.05
2022-12-01T13:30:04.611Z,96.67
2022-12-01T13:32:36.388Z,94.67
2022-12-01T13:35:09.608Z,94.88
2022-12-01T13:37:41.767Z,96.03
2022-12-01T13:40:23.842Z,96.63
2022-12-01T13:43:05.517Z,96.93
2022-12-01T13:45:42.339Z,96.95
2022-12-01T13:48:29.819Z,96.19
2022-12-01T13:51:02.996Z,95.08
2022-12-01T13:53:36.488Z,95.05
2022-12-01T13:56:29.323Z,94.29
2022-12-01T13:59:00.450Z,95.92
2022-12-01T14:01:51.451Z,97.20
2022-12-01T14:04:31.660Z,96.38
2022-12-01T17:12:10.630Z,100.00
2022-12-01T17:14:43.508Z,100.00
2022-12-01T17:17:13.620Z,100.00
2022-12-01T17:19:43.959Z,100.00
2022-12-01T17:22:22.045Z,100.00
2022-12-01T17:24:55.874Z,100.00
2022-12-01T17:27:34.275Z,100.00
2022-12-01T17:32:54.465Z,100.00
2022-12-01T17:35:29.489Z,100.00
2022-12-01T17:37:59.815Z,100.00
2022-12-01T17:40:32.498Z,100.00
2022-12-01T17:43:06.128Z,100.00
2022-12-01T17:45:42.241Z,100.00
2022-12-01T17:48:13.624Z,100.00
2022-12-01T17:50:47.260Z,100.00
2022-12-01T17:53:17.555Z,100.00
2022-12-01T17:55:49.590Z,100.00
2022-12-01T17:58:22.057Z,100.00
2022-12-01T18:00:58.079Z,100.00
2022-12-01T18:03:28.250Z,100.00
2022-12-01T18:05:59.518Z,100.00
2022-12-01T18:08:31.878Z,100.00
2022-12-01T18:11:03.866Z,100.00
2022-12-01T18:13:38.075Z,100.00
2022-12-01T18:16:10.332Z,100.00
2022-12-01T18:18:40.914Z,100.00
2022-12-01T18:21:14.156Z,100.00
2022-12-01T18:23:49.482Z,100.00
2022-12-01T18:26:22.985Z,100.00
2022-12-01T18:28:58.837Z,100.00
2022-12-01T18:31:30.731Z,100.00
2022-12-01T18:34:03.435Z,100.00
2022-12-01T18:36:36.345Z,100.00
2022-12-01T18:39:09.295Z,100.00
2022-12-01T18:41:41.038Z,100.00
2022-12-01T18:44:13.466Z,100.00
2022-12-01T18:46:44.186Z,100.00
2022-12-01T18:49:14.511Z,100.00
2022-12-01T18:51:46.079Z,100.00
2022-12-01T18:54:18.245Z,100.00
2022-12-01T18:56:52.167Z,100.00
2022-12-01T18:59:23.639Z,100.00
2022-12-01T19:01:54.101Z,100.00
2022-12-01T19:04:24.135Z,100.00
2022-12-01T19:06:55.177Z,100.00
2022-12-01T19:09:25.254Z,100.00
2022-12-01T19:12:00.105Z,100.00
2022-12-01T19:14:31.615Z,100.00
2022-12-01T19:17:01.936Z,100.00
2022-12-01T19:19:37.136Z,100.00
2022-12-01T19:22:07.835Z,100.00
2022-12-01T19:24:37.877Z,100.00
2022-12-01T19:27:08.486Z,100.00
2022-12-01T19:29:40.072Z,100.00
2022-12-01T19:32:12.128Z,100.00
2022-12-01T19:34:42.145Z,100.00
2022-12-01T19:37:12.686Z,100.00
2022-12-01T19:39:42.588Z,100.00
2022-12-01T19:42:13.800Z,100.00
2022-12-01T19:44:45.498Z,100.00
2022-12-01T19:47:21.896Z,100.00
2022-12-01T19:49:57.145Z,100.00
2022-12-01T19:52:36.422Z,100.00
2022-12-01T19:55:08.388Z,100.00
2022-12-01T19:57:46.109Z,100.00
2022-12-01T20:00:26.137Z,100.00
2022-12-01T20:02:56.399Z,100.00
2022-12-01T20:05:34.343Z,100.00
2022-12-01T20:08:04.959Z,100.00
2022-12-01T20:10:37.289Z,100.00
2022-12-01T20:13:07.799Z,100.00
2022-12-01T20:15:39.069Z,100.00
2022-12-01T20:18:09.046Z,100.00
2022-12-01T20:20:38.977Z,100.00
2022-12-01T20:23:09.214Z,100.00
2022-12-01T20:25:40.123Z,100.00
2022-12-01T20:28:10.495Z,100.00
2022-12-01T20:30:44.196Z,100.00
2022-12-01T20:33:14.545Z,100.00
2022-12-01T20:35:44.714Z,100.00
2022-12-01T20:38:15.034Z,100.00
2022-12-01T20:40:45.156Z,100.00
2022-12-01T20:43:15.547Z,100.00
2022-12-01T20:45:47.068Z,100.00
2022-12-01T20:48:17.515Z,100.00
2022-12-01T20:50:47.564Z,100.00
2022-12-01T20:53:17.814Z,100.00
2022-12-01T20:55:47.867Z,100.00
2022-12-01T20:58:18.513Z,100.00
2022-12-01T21:00:51.960Z,100.00
2022-12-01T21:03:22.434Z,100.00
2022-12-01T21:05:52.585Z,100.00
2022-12-01T21:08:23.956Z,100.00
2022-12-01T21:10:54.007Z,100.00
2022-12-01T21:13:42.472Z,100.00
2022-12-01T21:16:21.553Z,100.00
2022-12-01T21:18:55.163Z,100.00
2022-12-01T21:21:28.095Z,100.00
2022-12-01T21:24:20.525Z,100.00
2022-12-01T21:26:56.195Z,100.00
2022-12-01T21:29:28.110Z,100.00
2022-12-01T21:32:02.064Z,100.00
2022-12-01T21:34:35.354Z,100.00
2022-12-01T21:37:12.936Z,100.00
2022-12-01T21:39:43.152Z,100.00
2022-12-01T21:42:19.645Z,100.00
2022-12-01T21:44:51.065Z,100.00
2022-12-01T21:47:25.634Z,100.00
2022-12-01T21:49:59.015Z,100.00
2022-12-01T21:52:33.132Z,100.00
2022-12-01T21:55:11.122Z,100.00
2022-12-01T21:57:43.596Z,100.00
2022-12-01T22:00:28.976Z,100.00
2022-12-01T22:06:21.194Z,100.00
2022-12-01T22:08:50.605Z,100.00
2022-12-01T22:11:23.228Z,100.00
2022-12-01T22:14:00.628Z,100.00
2022-12-01T22:16:33.480Z,100.00
2022-12-01T22:19:19.469Z,100.00
2022-12-01T22:21:51.959Z,100.00
2022-12-01T22:24:27.257Z,100.00
2022-12-01T22:27:13.240Z,100.00
2022-12-01T22:29:45.836Z,100.00
2022-12-01T22:32:35.881Z,100.00
2022-12-01T22:35:25.885Z,100.00
2022-12-01T22:38:01.535Z,100.00
2022-12-01T22:40:41.623Z,100.00
2022-12-01T22:43:26.033Z,100.00
2022-12-01T22:46:15.553Z,100.00
2022-12-01T22:48:47.639Z,100.00
2022-12-01T22:51:40.181Z,100.00
2022-12-01T22:54:34.079Z,100.00
2022-12-01T22:57:33.449Z,100.00
2022-12-01T23:00:15.629Z,100.00
2022-12-01T23:02:49.011Z,100.00
2022-12-01T23:05:26.197Z,100.00
2022-12-01T23:07:57.842Z,100.00
2022-12-01T23:10:32.639Z,100.00
2022-12-01T23:13:14.588Z,100.00
2022-12-01T23:15:48.002Z,100.00
2022-12-01T23:18:22.015Z,100.00
2022-12-01T23:20:53.893Z,100.00
2022-12-01T23:23:28.902Z,100.00
2022-12-01T23:26:02.977Z,100.00
2022-12-01T23:28:33.808Z,100.00
2022-12-01T23:31:03.827Z,100.00
2022-12-01T23:33:35.360Z,100.00
2022-12-01T23:36:07.457Z,100.00
2022-12-01T23:38:39.442Z,100.00
2022-12-01T23:41:15.281Z,100.00
2022-12-01T23:43:46.963Z,100.00
2022-12-01T23:46:20.012Z,100.00
2022-12-01T23:48:55.559Z,100.00
2022-12-01T23:51:27.322Z,100.00
2022-12-01T23:53:59.637Z,100.00
2022-12-01T23:56:34.351Z,100.00
2022-12-01T23:59:04.832Z,100.00
